Time;durP1;ratioP1;P1;durP2;ratioP2;P2;SDS_P1;SDS_P2;PMS_P1;PMS_P2;Temp;Humidity;BMP_temperature;BMP_pressure;BME280_temperature;BME280_humidity;BME280_pressure;Samples;Min_cycle;Max_cycle;Signal;HPM_P1;HPM_P2
2021/11/01 00:00:26;;;;;;;4.82;4.00;;;;;;;8.08;100.00;91883.59;2098660;28;20505;-89
2021/11/01 00:01:27;;;;;;;6.32;4.03;;;;;;;8.09;100.00;91879.00;2091535;28;20477;-89
2021/11/01 00:02:29;;;;;;;4.05;3.50;;;;;;;8.07;100.00;91887.41;2090823;28;20107;-90
2021/11/01 00:03:30;;;;;;;5.07;3.85;;;;;;;8.05;100.00;91878.38;2098551;28;20491;-89
2021/11/01 00:04:32;;;;;;;5.57;3.35;;;;;;;8.08;100.00;91885.50;2099266;28;20676;-89
2021/11/01 00:05:33;;;;;;;5.78;3.38;;;;;;;8.15;100.00;91882.59;2098540;28;20077;-89
2021/11/01 00:06:34;;;;;;;6.15;3.60;;;;;;;8.16;100.00;91891.31;2090497;28;20029;-89
2021/11/01 00:07:36;;;;;;;3.60;3.30;;;;;;;8.20;100.00;91886.63;2083293;28;20021;-89
2021/11/01 00:08:40;;;;;;;5.45;3.80;;;;;;;8.36;100.00;91883.81;2098934;28;20119;-88
2021/11/01 00:09:41;;;;;;;5.45;4.00;;;;;;;8.34;100.00;91886.19;2098608;28;20028;-89
2021/11/01 00:10:43;;;;;;;4.75;4.38;;;;;;;8.28;100.00;91879.91;2107229;28;20016;-89
2021/11/01 00:11:44;;;;;;;3.95;3.65;;;;;;;8.29;100.00;91876.78;2100461;28;20025;-88
2021/11/01 00:12:45;;;;;;;4.75;4.35;;;;;;;8.32;100.00;91875.94;2090440;28;20051;-89
2021/11/01 00:13:46;;;;;;;5.57;4.50;;;;;;;8.35;100.00;91874.34;2090454;28;20108;-89
2021/11/01 00:14:47;;;;;;;6.97;4.20;;;;;;;8.29;100.00;91878.72;2098864;28;20178;-89
2021/11/01 00:15:48;;;;;;;5.32;4.22;;;;;;;8.22;100.00;91881.63;2097281;28;20117;-89
2021/11/01 00:16:49;;;;;;;4.53;4.13;;;;;;;8.17;100.00;91876.84;2082250;28;20442;-89
2021/11/01 00:17:50;;;;;;;7.20;4.07;;;;;;;8.21;100.00;91875.56;2091349;28;20029;-88
2021/11/01 00:18:51;;;;;;;6.72;4.50;;;;;;;8.25;100.00;91876.19;2090629;28;20016;-89
2021/11/01 00:19:53;;;;;;;6.80;4.55;;;;;;;8.23;100.00;91883.84;2097512;28;20020;-89
2021/11/01 00:20:54;;;;;;;6.10;5.07;;;;;;;8.21;100.00;91882.78;2109980;28;20084;-88
2021/11/01 00:21:55;;;;;;;5.63;5.13;;;;;;;8.36;100.00;91886.47;2113133;28;20035;-88
2021/11/01 00:22:56;;;;;;;8.23;4.57;;;;;;;8.42;100.00;91879.44;2097626;28;20052;-89
2021/11/01 00:23:57;;;;;;;5.10;4.68;;;;;;;8.45;100.00;91875.19;2097932;28;20032;-89
2021/11/01 00:24:58;;;;;;;5.43;4.13;;;;;;;8.63;100.00;91883.31;2106837;28;20052;-89
2021/11/01 00:26:00;;;;;;;6.60;4.90;;;;;;;8.53;100.00;91882.50;2083304;28;20077;-89
2021/11/01 00:27:01;;;;;;;5.03;4.60;;;;;;;8.40;100.00;91879.16;2090618;28;20025;-90
2021/11/01 00:28:04;;;;;;;5.78;4.70;;;;;;;8.35;100.00;91879.69;2099225;28;20044;-88
2021/11/01 00:29:06;;;;;;;5.88;4.68;;;;;;;8.36;100.00;91875.09;2098457;28;20051;-88
2021/11/01 00:30:10;;;;;;;9.05;6.45;;;;;;;8.41;100.00;91875.31;2091219;28;20057;-89
2021/11/01 00:31:12;;;;;;;5.22;4.65;;;;;;;8.46;100.00;91872.09;2098915;28;20448;-89
2021/11/01 00:32:13;;;;;;;7.50;4.68;;;;;;;8.44;100.00;91879.03;2090509;28;20481;-90
2021/11/01 00:33:15;;;;;;;5.55;4.95;;;;;;;8.49;100.00;91876.56;2090488;28;20051;-89
2021/11/01 00:34:16;;;;;;;4.82;4.28;;;;;;;8.52;100.00;91867.72;2090553;28;20021;-89
2021/11/01 00:35:17;;;;;;;4.95;4.28;;;;;;;8.51;100.00;91874.19;2090305;28;20033;-88
2021/11/01 00:36:18;;;;;;;5.80;4.82;;;;;;;8.44;100.00;91866.47;2092192;28;20049;-88
2021/11/01 00:37:19;;;;;;;5.32;4.82;;;;;;;8.45;100.00;91873.25;2107024;28;20091;-88
2021/11/01 00:38:20;;;;;;;5.07;4.55;;;;;;;8.36;100.00;91861.78;2106781;28;21754;-88
2021/11/01 00:39:22;;;;;;;4.53;4.13;;;;;;;8.45;100.00;91870.59;2099831;28;20095;-88
2021/11/01 00:40:23;;;;;;;4.53;4.13;;;;;;;8.49;100.00;91868.56;2091193;28;20021;-88
2021/11/01 00:41:24;;;;;;;4.78;4.38;;;;;;;8.39;100.00;91867.00;2092550;28;20017;-87
2021/11/01 00:42:25;;;;;;;5.28;3.85;;;;;;;8.39;100.00;91875.00;2090435;28;20021;-88
2021/11/01 00:43:26;;;;;;;4.50;4.10;;;;;;;8.40;100.00;91862.44;2101627;28;20026;-88
2021/11/01 00:44:27;;;;;;;5.10;4.05;;;;;;;8.48;100.00;91874.34;2098422;28;20047;-88
2021/11/01 00:45:29;;;;;;;6.10;4.07;;;;;;;8.47;100.00;91873.59;2098457;28;20416;-88
2021/11/01 00:46:30;;;;;;;4.68;4.28;;;;;;;8.54;100.00;91875.25;2098332;28;20025;-87
2021/11/01 00:47:31;;;;;;;4.70;4.20;;;;;;;8.61;100.00;91874.28;2098181;28;20178;-88
2021/11/01 00:48:32;;;;;;;5.53;4.15;;;;;;;8.49;100.00;91873.16;2097551;28;20490;-88
2021/11/01 00:49:33;;;;;;;6.45;4.93;;;;;;;8.53;100.00;91874.50;2090069;28;20024;-89
2021/11/01 00:50:36;;;;;;;5.25;4.60;;;;;;;8.51;100.00;91868.88;2090367;28;20462;-88
2021/11/01 00:51:41;;;;;;;8.02;4.65;;;;;;;8.69;100.00;91870.16;2098980;28;20107;-90
2021/11/01 00:52:42;;;;;;;6.22;5.45;;;;;;;8.54;100.00;91872.59;2098682;28;20043;-89
2021/11/01 00:53:48;;;;;;;5.10;4.63;;;;;;;8.49;100.00;91865.91;2098654;28;20027;-88
2021/11/01 00:54:50;;;;;;;6.53;4.78;;;;;;;8.49;100.00;91867.81;2100074;28;20024;-89
2021/11/01 00:55:52;;;;;;;6.03;4.63;;;;;;;8.47;100.00;91862.16;2106764;28;20016;-89
2021/11/01 00:56:53;;;;;;;5.40;4.90;;;;;;;8.35;100.00;91855.72;2098524;28;20017;-89
2021/11/01 00:57:54;;;;;;;4.75;4.35;;;;;;;8.35;100.00;91855.72;2090334;28;20017;-89
2021/11/01 00:58:55;;;;;;;4.97;4.43;;;;;;;8.42;100.00;91862.72;2098429;28;20484;-90
2021/11/01 00:59:59;;;;;;;6.20;4.80;;;;;;;8.58;100.00;91857.97;2098617;28;20048;-88
2021/11/01 01:01:00;;;;;;;4.50;4.10;;;;;;;8.52;100.00;91858.97;2098677;28;20438;-89
2021/11/01 01:02:01;;;;;;;4.90;4.35;;;;;;;8.64;100.00;91866.16;2098238;28;20048;-88
2021/11/01 01:03:03;;;;;;;4.47;4.07;;;;;;;8.66;100.00;91857.75;2098084;28;20034;-89
2021/11/01 01:04:05;;;;;;;5.05;4.40;;;;;;;8.62;100.00;91857.84;2090802;28;20116;-89
2021/11/01 01:05:06;;;;;;;4.72;4.32;;;;;;;8.66;100.00;91855.06;2106883;28;20020;-90
2021/11/01 01:06:12;;;;;;;4.85;4.40;;;;;;;8.59;100.00;91861.38;2106721;28;20491;-88
2021/11/01 01:07:16;;;;;;;4.95;4.45;;;;;;;8.51;100.00;91844.91;2097254;28;20050;-89
2021/11/01 01:08:18;;;;;;;4.47;4.03;;;;;;;8.57;100.00;91858.41;2106532;28;20048;-90
2021/11/01 01:09:23;;;;;;;5.82;4.43;;;;;;;8.52;100.00;91851.72;2093332;28;20111;-88
2021/11/01 01:10:27;;;;;;;5.13;4.07;;;;;;;8.50;100.00;91856.72;2099760;28;20020;-89
2021/11/01 01:11:30;;;;;;;4.80;4.40;;;;;;;8.42;100.00;91857.41;2106767;28;20737;-90
2021/11/01 01:12:31;;;;;;;5.05;4.55;;;;;;;8.41;100.00;91851.34;2094807;28;20025;-89
2021/11/01 01:13:41;;;;;;;4.50;4.10;;;;;;;8.43;100.00;91854.31;2105883;28;20501;-90
2021/11/01 01:14:46;;;;;;;4.78;4.28;;;;;;;8.44;100.00;91850.47;2099517;28;20036;-89
2021/11/01 01:16:48;;;;;;;4.18;3.75;;;;;;;8.45;100.00;91838.66;2099508;28;20020;-89
2021/11/01 01:17:51;;;;;;;6.50;4.57;;;;;;;8.46;100.00;91847.38;2089938;28;20086;-88
2021/11/01 01:18:56;;;;;;;4.63;4.22;;;;;;;8.46;100.00;91842.06;2103540;28;20024;-89
2021/11/01 01:20:03;;;;;;;4.80;4.40;;;;;;;8.46;100.00;91839.38;2106191;28;20492;-89
2021/11/01 01:22:30;;;;;;;5.07;4.57;;;;;;;8.57;100.00;91843.19;2104184;28;20028;-90
2021/11/01 01:23:31;;;;;;;5.45;4.30;;;;;;;8.57;100.00;91837.84;2106974;28;20024;-88
2021/11/01 01:24:32;;;;;;;4.40;4.00;;;;;;;8.65;100.00;91838.34;2105834;28;20029;-88
2021/11/01 01:25:42;;;;;;;5.57;4.22;;;;;;;8.54;100.00;91837.97;2089972;28;20384;-88
2021/11/01 01:26:43;;;;;;;6.70;4.50;;;;;;;8.47;100.00;91836.31;2084515;28;20104;-88
2021/11/01 01:27:45;;;;;;;4.20;3.80;;;;;;;8.47;100.00;91835.53;2089972;28;20032;-89
2021/11/01 01:28:46;;;;;;;6.00;4.22;;;;;;;8.53;100.00;91829.25;2100132;28;20078;-87
2021/11/01 01:29:50;;;;;;;5.53;4.30;;;;;;;8.65;100.00;91829.59;2098156;28;20069;-88
2021/11/01 01:30:52;;;;;;;6.13;4.43;;;;;;;8.70;100.00;91829.81;2096730;28;20524;-89
2021/11/01 01:31:53;;;;;;;6.10;4.05;;;;;;;8.61;100.00;91821.75;2097902;28;20043;-87
2021/11/01 01:32:53;;;;;;;4.35;3.67;;;;;;;8.55;100.00;91820.81;2100216;28;20436;-87
2021/11/01 01:33:55;;;;;;;4.40;4.00;;;;;;;8.57;100.00;91823.78;2106600;28;20098;-88
2021/11/01 01:34:55;;;;;;;4.45;4.05;;;;;;;8.59;100.00;91816.09;2091807;28;20469;-87
2021/11/01 01:35:57;;;;;;;4.40;4.00;;;;;;;8.66;100.00;91807.13;2098343;28;20078;-87
2021/11/01 01:36:58;;;;;;;4.82;4.07;;;;;;;8.71;100.00;91815.28;2105941;28;20028;-89
2021/11/01 01:37:59;;;;;;;4.50;4.10;;;;;;;8.70;100.00;91815.75;2106380;28;20070;-87
2021/11/01 01:39:00;;;;;;;5.50;4.15;;;;;;;8.78;100.00;91817.72;2097989;28;20017;-86
2021/11/01 01:40:03;;;;;;;5.78;4.80;;;;;;;8.69;100.00;91816.91;2098144;28;20048;-87
2021/11/01 01:41:19;;;;;;;4.35;3.95;;;;;;;8.63;100.00;91814.06;2104602;28;20028;-87
2021/11/01 01:42:20;;;;;;;5.10;4.10;;;;;;;8.55;100.00;91804.81;2094970;28;20028;-86
2021/11/01 01:43:22;;;;;;;7.90;3.70;;;;;;;8.59;100.00;91810.78;2106316;28;21495;-87
2021/11/01 01:44:23;;;;;;;4.25;3.90;;;;;;;8.59;100.00;91797.47;2097460;28;20075;-88
2021/11/01 01:45:24;;;;;;;5.85;4.00;;;;;;;8.65;100.00;91810.94;2106490;28;20052;-88
2021/11/01 01:46:26;;;;;;;4.53;4.13;;;;;;;8.69;100.00;91800.91;2097980;28;20510;-88
2021/11/01 01:47:27;;;;;;;8.93;4.57;;;;;;;8.62;100.00;91793.19;2098061;28;20024;-87
2021/11/01 01:48:28;;;;;;;4.50;4.13;;;;;;;8.54;100.00;91795.34;2093225;28;20085;-88
2021/11/01 01:49:29;;;;;;;4.95;3.88;;;;;;;8.50;100.00;91795.47;2097937;28;20479;-87
2021/11/01 01:50:32;;;;;;;4.82;4.43;;;;;;;8.48;100.00;91789.13;2093855;28;20024;-86
2021/11/01 01:51:33;;;;;;;4.30;3.90;;;;;;;8.55;100.00;91794.19;2097828;28;20032;-87
2021/11/01 01:52:34;;;;;;;4.03;3.47;;;;;;;8.57;100.00;91787.25;2100763;28;20032;-87
2021/11/01 01:53:36;;;;;;;4.68;4.20;;;;;;;8.57;100.00;91794.50;2097962;28;20020;-87
2021/11/01 01:54:37;;;;;;;8.02;4.20;;;;;;;8.49;100.00;91795.94;2098057;28;20024;-87
2021/11/01 01:55:38;;;;;;;4.32;3.92;;;;;;;8.58;100.00;91790.66;2097762;28;20086;-87
2021/11/01 01:56:39;;;;;;;4.22;3.88;;;;;;;8.69;100.00;91793.69;2097424;28;20024;-88
2021/11/01 01:57:41;;;;;;;4.80;3.90;;;;;;;8.81;100.00;91789.44;2097873;28;20021;-88
2021/11/01 01:58:49;;;;;;;4.32;3.92;;;;;;;8.76;100.00;91790.75;2086781;28;20021;-87
2021/11/01 01:59:50;;;;;;;5.18;3.67;;;;;;;8.74;100.00;91792.38;2083112;28;20029;-88
2021/11/01 02:01:52;;;;;;;4.03;3.63;;;;;;;8.67;100.00;91788.03;2097295;28;20539;-88
2021/11/01 02:02:53;;;;;;;6.07;3.88;;;;;;;8.67;100.00;91784.63;2101201;28;20380;-86
2021/11/01 02:04:20;;;;;;;3.70;3.40;;;;;;;8.75;100.00;91783.19;2100039;28;20408;-88
2021/11/01 02:05:58;;;;;;;3.60;3.30;;;;;;;8.73;100.00;91785.53;2107212;28;20030;-88
2021/11/01 02:08:33;;;;;;;;;;;;;;;8.69;100.00;91779.59;2141221;27;20617;-89
2021/11/01 02:10:04;;;;;;;3.60;3.30;;;;;;;8.65;100.00;91779.75;2140470;27;20346;-86
2021/11/01 02:11:34;;;;;;;4.05;3.00;;;;;;;8.63;100.00;91776.03;2139638;27;20459;-89
2021/11/01 02:13:06;;;;;;;3.67;3.38;;;;;;;8.68;100.00;91778.13;2127237;27;20781;-90
2021/11/01 02:14:36;;;;;;;3.75;3.45;;;;;;;8.70;100.00;91781.84;2128503;27;20027;-87
2021/11/01 02:15:59;;;;;;;3.65;2.80;;;;;;;8.67;100.00;91782.72;2129024;27;20498;-89
2021/11/01 02:17:27;;;;;;;5.65;3.60;;;;;;;8.75;100.00;91788.53;2128254;27;20027;-89
2021/11/01 02:18:51;;;;;;;4.00;3.05;;;;;;;9.05;100.00;91779.06;2128543;27;20398;-88
2021/11/01 02:20:18;;;;;;;4.40;3.13;;;;;;;9.00;100.00;91788.38;2130623;27;20050;-87
2021/11/01 02:21:52;;;;;;;4.18;3.40;;;;;;;8.96;100.00;91784.34;2130759;27;20042;-87
2021/11/01 02:23:24;;;;;;;2.90;2.70;;;;;;;8.82;100.00;91794.34;2122755;27;20062;-87
2021/11/01 02:25:39;;;;;;;3.55;3.22;;;;;;;8.82;100.00;91794.34;2130511;27;20034;-88
2021/11/01 02:27:00;;;;;;;4.82;3.40;;;;;;;8.89;100.00;91795.25;2121020;28;20103;-88
2021/11/01 02:28:25;;;;;;;4.75;3.40;;;;;;;8.92;100.00;91792.47;2121037;28;20157;-85
2021/11/01 02:29:47;;;;;;;3.65;3.10;;;;;;;8.93;100.00;91801.19;2131191;27;20034;-89
2021/11/01 02:31:19;;;;;;;3.45;3.15;;;;;;;9.03;100.00;91821.38;2130768;27;20133;-88
2021/11/01 02:32:42;;;;;;;5.43;2.60;;;;;;;8.84;100.00;91825.88;2129329;27;20027;-87
2021/11/01 02:34:03;;;;;;;3.42;0.93;;;;;;;9.13;100.00;91820.25;2126600;27;20742;-86
2021/11/01 02:35:24;;;;;;;2.47;0.38;;;;;;;9.19;100.00;91812.44;2121790;27;20023;-88
2021/11/01 02:36:45;;;;;;;0.22;0.15;;;;;;;9.34;100.00;91816.75;2122277;27;20384;-89
2021/11/01 02:38:06;;;;;;;0.17;0.17;;;;;;;9.26;100.00;91826.25;2121467;27;20097;-85
2021/11/01 02:39:29;;;;;;;0.75;0.28;;;;;;;9.27;100.00;91835.72;2122778;27;20506;-87
2021/11/01 02:40:50;;;;;;;0.10;0.10;;;;;;;9.15;100.00;91825.88;2122558;27;20031;-87
2021/11/01 02:42:11;;;;;;;0.30;0.20;;;;;;;9.13;100.00;91832.81;2121578;27;20488;-88
2021/11/01 02:43:31;;;;;;;2.67;0.20;;;;;;;9.06;100.00;91821.25;2122573;27;20031;-88
2021/11/01 02:44:53;;;;;;;1.02;0.20;;;;;;;9.07;100.00;91833.41;2121654;27;21374;-87
2021/11/01 02:46:13;;;;;;;1.10;0.30;;;;;;;9.07;100.00;91836.06;2122491;27;20027;-86
2021/11/01 02:47:34;;;;;;;0.82;0.28;;;;;;;9.02;100.00;91836.63;2122567;27;20498;-86
2021/11/01 02:48:55;;;;;;;2.47;0.20;;;;;;;9.07;100.00;91837.97;2123589;27;20038;-86
2021/11/01 02:50:17;;;;;;;2.30;0.30;;;;;;;9.10;100.00;91839.78;2108120;28;20032;-84
2021/11/01 02:51:40;;;;;;;2.45;0.10;;;;;;;9.18;100.00;91840.28;2086989;28;20041;-87
2021/11/01 02:53:01;;;;;;;0.10;0.10;;;;;;;9.38;100.00;91847.91;2100437;28;20040;-87
2021/11/01 02:54:22;;;;;;;0.25;0.10;;;;;;;9.11;100.00;91843.94;2092348;28;20651;-87
2021/11/01 02:55:43;;;;;;;4.53;0.20;;;;;;;9.05;100.00;91849.09;2084019;28;20037;-89
2021/11/01 02:57:04;;;;;;;0.00;0.00;;;;;;;9.19;100.00;91849.75;2086799;28;20033;-91
2021/11/01 02:58:27;;;;;;;0.10;0.10;;;;;;;9.05;100.00;91851.75;2085237;28;20037;-87
2021/11/01 02:59:48;;;;;;;0.13;0.10;;;;;;;9.00;100.00;91848.91;2098066;28;20400;-90
2021/11/01 03:01:12;;;;;;;0.90;0.13;;;;;;;8.86;100.00;91849.41;2083237;28;20041;-84
2021/11/01 03:02:34;;;;;;;0.22;0.15;;;;;;;8.91;100.00;91848.84;2103712;28;20044;-88
2021/11/01 03:03:55;;;;;;;0.10;0.10;;;;;;;8.87;100.00;91842.91;2085634;28;20044;-87
2021/11/01 03:05:19;;;;;;;1.20;0.20;;;;;;;8.83;100.00;91848.38;2074836;28;20072;-84
2021/11/01 03:06:40;;;;;;;0.10;0.10;;;;;;;8.85;100.00;91845.28;2083998;28;20148;-90
2021/11/01 08:28:58;;;;;;;0.30;0.30;;;;;;;6.35;100.00;92010.28;2113220;28;20472;-89
2021/11/01 08:45:30;;;;;;;1.38;0.40;;;;;;;6.65;100.00;92000.47;2102991;28;20032;-85
2021/11/01 08:47:00;;;;;;;1.05;0.43;;;;;;;6.71;100.00;92004.09;2091104;28;20029;-88
2021/11/01 08:49:36;;;;;;;0.22;0.22;;;;;;;6.69;100.00;92003.78;2103914;28;20028;-90
2021/11/01 08:50:56;;;;;;;2.53;0.35;;;;;;;6.63;100.00;92008.09;2094663;28;20043;-85
2021/11/01 08:52:16;;;;;;;0.90;0.60;;;;;;;6.55;100.00;92000.31;2095234;28;20024;-88
2021/11/01 09:09:42;;;;;;;0.80;0.40;;;;;;;6.97;100.00;92005.69;2103669;28;20028;-87
2021/11/01 09:13:22;;;;;;;0.88;0.50;;;;;;;6.95;100.00;91999.31;2103493;28;20023;-90
2021/11/01 09:18:48;;;;;;;2.28;0.45;;;;;;;6.92;100.00;92000.16;2082915;28;20087;-87
2021/11/01 09:19:53;;;;;;;0.25;0.25;;;;;;;6.98;100.00;92012.53;2104101;28;21368;-86
2021/11/01 09:22:17;;;;;;;0.57;0.40;;;;;;;7.14;100.00;92021.59;2100754;28;20122;-86
2021/11/01 09:26:42;;;;;;;0.40;0.40;;;;;;;6.85;100.00;92021.56;2087834;28;20105;-92
2021/11/01 09:27:53;;;;;;;0.47;0.45;;;;;;;6.61;100.00;92036.97;2082529;28;20075;-90
2021/11/01 09:29:06;;;;;;;1.38;0.52;;;;;;;6.92;100.00;92032.03;2085129;28;21225;-86
2021/11/01 09:35:53;;;;;;;1.45;0.60;;;;;;;7.06;100.00;92040.38;2090022;28;20116;-89
2021/11/01 09:36:56;;;;;;;0.85;0.63;;;;;;;6.96;100.00;92046.72;2082875;28;20052;-83
2021/11/01 09:41:49;;;;;;;0.70;0.50;;;;;;;6.56;100.00;92025.69;2091779;28;20025;-87
2021/11/01 09:42:52;;;;;;;2.63;0.40;;;;;;;6.66;100.00;92023.19;2090282;28;20531;-86
2021/11/01 09:43:57;;;;;;;0.52;0.52;;;;;;;6.61;100.00;92010.44;2090420;28;20031;-84
2021/11/01 09:44:58;;;;;;;1.85;0.65;;;;;;;6.94;100.00;92011.13;2078359;28;20080;-84
2021/11/01 09:46:02;;;;;;;0.60;0.60;;;;;;;7.03;100.00;92012.00;2078607;28;20033;-84
2021/11/01 09:47:04;;;;;;;0.65;0.50;;;;;;;6.93;100.00;92004.28;2082944;28;20037;-86
2021/11/01 09:48:06;;;;;;;0.60;0.50;;;;;;;6.97;100.00;92016.31;2082335;28;20044;-85
2021/11/01 09:49:16;;;;;;;1.30;0.70;;;;;;;6.87;100.00;92012.03;2093616;28;20029;-90
2021/11/01 09:50:22;;;;;;;0.57;0.55;;;;;;;6.90;100.00;92021.84;2084156;28;20024;-90
2021/11/01 09:51:23;;;;;;;0.50;0.40;;;;;;;6.71;100.00;92028.00;2091778;28;20084;-88
2021/11/01 09:52:25;;;;;;;0.95;0.60;;;;;;;6.88;100.00;92023.41;2107321;28;20469;-89
2021/11/01 09:53:39;;;;;;;0.73;0.50;;;;;;;6.97;100.00;92018.22;2090855;28;20072;-89
2021/11/01 09:54:42;;;;;;;0.40;0.40;;;;;;;7.05;100.00;92022.94;2084561;28;20048;-85
2021/11/01 09:55:48;;;;;;;0.40;0.40;;;;;;;7.04;100.00;92018.06;2090321;28;20035;-85
2021/11/01 09:56:59;;;;;;;0.40;0.40;;;;;;;7.09;100.00;92024.75;2082658;28;20025;-87
2021/11/01 09:59:24;;;;;;;2.05;0.63;;;;;;;7.04;100.00;92018.81;2089599;28;20423;-87
2021/11/01 10:00:25;;;;;;;2.17;0.52;;;;;;;6.93;100.00;92020.97;2098865;28;20039;-87
2021/11/01 10:01:26;;;;;;;0.43;0.40;;;;;;;6.86;100.00;92020.44;2086456;28;20071;-87
2021/11/01 10:02:27;;;;;;;0.50;0.50;;;;;;;6.90;100.00;92015.78;2073023;28;20029;-85
2021/11/01 10:03:39;;;;;;;1.02;0.60;;;;;;;6.89;100.00;92012.38;2075391;28;20247;-88
2021/11/01 10:04:45;;;;;;;2.38;0.70;;;;;;;6.93;100.00;92012.25;2084631;28;20034;-88
2021/11/01 10:05:55;;;;;;;2.65;0.55;;;;;;;6.91;100.00;92007.38;2084157;28;20440;-86
2021/11/01 10:07:33;;;;;;;0.50;0.50;;;;;;;6.91;100.00;92003.97;2080389;28;20026;-86
2021/11/01 10:08:34;;;;;;;4.60;0.77;;;;;;;7.13;100.00;92009.47;2094142;28;20166;-86
2021/11/01 10:09:42;;;;;;;0.40;0.40;;;;;;;7.23;100.00;92008.44;2090835;28;20108;-86
2021/11/01 10:10:43;;;;;;;0.50;0.50;;;;;;;7.15;100.00;92007.88;2081426;28;20037;-86
2021/11/01 10:11:44;;;;;;;1.23;0.55;;;;;;;7.09;100.00;92009.56;2088234;28;20054;-85
2021/11/01 10:12:48;;;;;;;0.50;0.40;;;;;;;7.03;100.00;92006.69;2089713;28;20119;-84
2021/11/01 10:13:52;;;;;;;2.58;0.40;;;;;;;6.87;100.00;92006.72;2081871;28;20068;-86
2021/11/01 10:17:33;;;;;;;0.88;0.30;;;;;;;6.93;100.00;92005.03;2082563;28;20474;-85
2021/11/01 10:18:23;;;;;;;0.35;0.35;;;;;;;7.02;100.00;91999.13;2102997;28;20024;-88
2021/11/01 10:19:36;;;;;;;0.60;0.40;;;;;;;7.06;100.00;92003.16;2094949;28;20090;-87
2021/11/01 10:20:47;;;;;;;1.27;0.55;;;;;;;7.09;100.00;92006.16;2101496;28;20028;-86
2021/11/01 10:21:57;;;;;;;1.00;0.65;;;;;;;6.91;100.00;92010.03;2090208;28;20020;-88
2021/11/01 10:22:58;;;;;;;;;;;;;;;6.90;100.00;92016.53;2084124;28;20115;-88
2021/11/01 10:24:00;;;;;;;0.90;0.60;;;;;;;6.78;100.00;92009.25;2089990;28;19920;-87
2021/11/01 10:25:02;;;;;;;2.25;0.70;;;;;;;6.79;100.00;92011.47;2088182;28;20029;-88
2021/11/01 10:26:15;;;;;;;1.27;0.60;;;;;;;6.80;100.00;92007.66;2079678;28;20112;-87
2021/11/01 10:27:28;;;;;;;1.92;0.60;;;;;;;6.88;100.00;91994.94;2079510;28;20100;-89
2021/11/01 10:28:30;;;;;;;0.63;0.60;;;;;;;6.88;100.00;91997.59;2080388;28;20116;-87
2021/11/01 10:29:33;;;;;;;0.70;0.70;;;;;;;6.85;100.00;92006.41;2077742;28;20466;-85
2021/11/01 10:30:36;;;;;;;1.02;0.73;;;;;;;7.16;100.00;91998.75;2089611;28;20389;-85
2021/11/01 10:31:45;;;;;;;1.42;0.52;;;;;;;7.02;100.00;92002.53;2098966;28;20032;-88
2021/11/01 10:32:50;;;;;;;2.40;0.60;;;;;;;6.93;100.00;92018.31;2083785;28;20115;-89
2021/11/01 10:34:03;;;;;;;1.45;0.60;;;;;;;6.91;100.00;92007.38;2076412;28;20033;-87
2021/11/01 10:35:20;;;;;;;3.78;0.60;;;;;;;7.06;100.00;92010.41;2086574;28;20026;-89
2021/11/01 10:36:30;;;;;;;2.38;0.73;;;;;;;7.15;100.00;91999.16;2085794;28;20057;-87
2021/11/01 10:37:34;;;;;;;0.70;0.68;;;;;;;7.15;100.00;92007.88;2080191;28;20032;-85
2021/11/01 10:38:37;;;;;;;0.90;0.60;;;;;;;7.23;100.00;91997.81;2085967;28;20075;-90
2021/11/01 10:39:38;;;;;;;0.60;0.60;;;;;;;7.31;100.00;91999.09;2088743;28;20040;-87
2021/11/01 10:41:00;;;;;;;1.00;0.45;;;;;;;7.62;100.00;92001.28;2085003;28;20466;-86
2021/11/01 10:43:38;;;;;;;1.25;0.60;;;;;;;7.48;100.00;92005.09;2092642;28;20033;-87
2021/11/01 11:11:04;;;;;;;1.90;0.50;;;;;;;7.10;100.00;91981.09;2094922;28;20032;-86
2021/11/01 11:13:17;;;;;;;3.55;0.50;;;;;;;7.27;100.00;91974.53;2087182;28;20032;-87
2021/11/01 11:15:29;;;;;;;0.95;0.30;;;;;;;7.27;100.00;91977.94;2087836;28;20060;-86
2021/11/01 11:20:46;;;;;;;1.65;0.30;;;;;;;7.18;100.00;91974.41;2102347;28;20461;-85
2021/11/01 11:32:39;;;;;;;2.15;2.05;;;;;;;7.31;100.00;91961.91;2115281;27;20445;-88
2021/11/01 11:48:21;;;;;;;1.38;1.10;;;;;;;7.65;100.00;91940.03;2113098;27;20046;-86
2021/11/01 11:49:23;;;;;;;1.25;0.90;;;;;;;7.42;100.00;91948.28;2116456;27;20492;-84
2021/11/01 11:50:29;;;;;;;1.63;1.35;;;;;;;7.52;100.00;91950.66;2106563;28;20043;-93
2021/11/01 11:51:30;;;;;;;1.38;1.13;;;;;;;7.34;100.00;91944.38;2105859;28;20576;-85
2021/11/01 11:52:35;;;;;;;1.00;0.63;;;;;;;7.24;100.00;91941.59;2113950;27;20033;-88
2021/11/01 11:53:57;;;;;;;1.27;0.70;;;;;;;7.21;100.00;91936.38;2107911;28;20031;-88
2021/11/01 11:55:05;;;;;;;1.98;0.65;;;;;;;7.53;100.00;91941.50;2108418;28;20119;-87
2021/11/01 11:56:10;;;;;;;1.58;0.88;;;;;;;7.31;100.00;91940.63;2093691;28;20542;-88
2021/11/01 11:57:25;;;;;;;2.60;1.50;;;;;;;7.42;100.00;91935.75;2102500;27;20024;-88
2021/11/01 11:58:34;;;;;;;2.42;1.08;;;;;;;7.48;100.00;91939.38;2101815;28;20028;-86
2021/11/01 11:59:36;;;;;;;0.70;0.70;;;;;;;7.33;100.00;91930.31;2101107;27;20731;-88
2021/11/01 12:00:39;;;;;;;2.50;1.00;;;;;;;7.31;100.00;91937.97;2099537;28;20044;-85
2021/11/01 12:01:43;;;;;;;1.48;0.73;;;;;;;7.21;100.00;91925.75;2106667;27;20028;-87
2021/11/01 12:02:47;;;;;;;2.13;0.80;;;;;;;7.11;100.00;91926.78;2113306;27;20545;-87
2021/11/01 12:03:48;;;;;;;3.80;0.80;;;;;;;7.17;100.00;91931.16;2097909;28;20028;-89
2021/11/01 12:05:09;;;;;;;2.85;0.90;;;;;;;7.07;100.00;91926.88;2100818;27;20020;-85
2021/11/01 12:06:13;;;;;;;2.10;0.80;;;;;;;7.09;100.00;91932.50;2108658;28;20047;-90
2021/11/01 12:07:18;;;;;;;2.33;1.00;;;;;;;7.04;100.00;91923.16;2109554;28;20024;-87
2021/11/01 12:08:31;;;;;;;4.53;0.60;;;;;;;7.29;100.00;91921.72;2107285;28;20388;-88
2021/11/01 12:09:43;;;;;;;0.55;0.40;;;;;;;7.34;100.00;91925.75;2106186;28;20641;-86
2021/11/01 12:17:16;;;;;;;0.57;0.40;;;;;;;7.23;100.00;91928.72;2110181;27;20072;-88
2021/11/01 12:18:29;;;;;;;0.52;0.52;;;;;;;7.35;100.00;91928.00;2106314;28;20069;-87
2021/11/01 12:19:32;;;;;;;0.75;0.40;;;;;;;7.20;100.00;91927.66;2101049;28;20107;-84
2021/11/01 12:20:33;;;;;;;2.78;0.60;;;;;;;7.36;100.00;91923.41;2094630;28;20841;-86
2021/11/01 12:21:41;;;;;;;2.08;0.50;;;;;;;7.04;100.00;91923.16;2093070;28;20039;-87
2021/11/01 12:22:47;;;;;;;0.80;0.30;;;;;;;7.07;100.00;91914.34;2098279;28;20025;-85
2021/11/01 12:23:50;;;;;;;1.05;0.60;;;;;;;7.05;100.00;91918.59;2099967;28;20103;-86
2021/11/01 12:24:51;;;;;;;1.52;0.65;;;;;;;6.99;100.00;91915.72;2091347;28;20021;-88
2021/11/01 12:25:52;;;;;;;1.17;0.47;;;;;;;7.09;100.00;91911.25;2082575;28;20037;-85
2021/11/01 12:27:06;;;;;;;2.60;0.80;;;;;;;7.37;100.00;91903.63;2082766;28;20018;-85
2021/11/01 12:28:13;;;;;;;3.92;0.50;;;;;;;7.35;100.00;91904.06;2089414;28;20025;-88
2021/11/01 12:29:16;;;;;;;1.73;0.75;;;;;;;7.29;100.00;91898.53;2088556;28;20049;-83
2021/11/01 12:30:19;;;;;;;0.85;0.47;;;;;;;7.06;100.00;91902.22;2087668;28;20045;-87
2021/11/01 12:31:21;;;;;;;3.30;0.60;;;;;;;7.21;100.00;91907.88;2086659;28;20481;-91
2021/11/01 12:32:23;;;;;;;0.77;0.65;;;;;;;7.43;100.00;91904.59;2096611;28;20039;-89
2021/11/01 12:33:26;;;;;;;2.22;0.50;;;;;;;7.42;100.00;91901.22;2088494;28;20032;-87
2021/11/01 12:34:27;;;;;;;1.98;0.50;;;;;;;7.53;100.00;91892.91;2079691;28;20025;-87
2021/11/01 12:35:30;;;;;;;0.50;0.50;;;;;;;7.53;100.00;91892.91;2072897;28;20081;-86
2021/11/01 12:37:42;;;;;;;2.80;0.80;;;;;;;7.43;100.00;91892.06;2096920;28;20032;-83
2021/11/01 12:38:55;;;;;;;1.75;1.08;;;;;;;7.79;100.00;91898.94;2096706;28;20035;-90
2021/11/01 12:40:20;;;;;;;2.15;1.20;;;;;;;7.68;100.00;91909.16;2098727;28;20623;-88
2021/11/01 12:41:41;;;;;;;1.20;0.90;;;;;;;7.53;100.00;91909.59;2094929;28;20028;-86
2021/11/01 12:43:02;;;;;;;1.35;0.73;;;;;;;7.65;100.00;91899.41;2089409;28;20032;-84
2021/11/01 12:56:59;;;;;;;3.05;1.20;;;;;;;7.60;100.00;91878.66;2104588;28;20526;-89
2021/11/01 12:57:34;;;;;;;2.00;1.08;;;;;;;7.71;100.00;91876.41;2100580;28;20035;-89
2021/11/01 12:58:36;;;;;;;0.80;0.80;;;;;;;7.72;100.00;91872.56;2104997;28;21476;-89
2021/11/01 12:59:42;;;;;;;2.85;1.23;;;;;;;7.73;100.00;91879.38;2093502;28;20125;-84
2021/11/01 13:00:44;;;;;;;6.07;1.02;;;;;;;7.74;100.00;91880.88;2087031;28;20048;-87
2021/11/01 13:01:49;;;;;;;2.60;1.05;;;;;;;7.88;100.00;91879.69;2085915;28;20047;-83
2021/11/01 13:02:50;;;;;;;2.55;1.40;;;;;;;7.61;100.00;91874.81;2079295;28;20482;-85